sensor_id;sensor_type;location;lat;lon;timestamp;temperature;humidity
3037;DHT22;1528;52.550;13.408;2022-08-01T00:01:13;22.70;17.40
3037;DHT22;1528;52.550;13.408;2022-08-01T00:04:05;22.80;17.80
3037;DHT22;1528;52.550;13.408;2022-08-01T00:06:54;22.70;17.30
3037;DHT22;1528;52.550;13.408;2022-08-01T00:09:43;22.80;17.30
3037;DHT22;1528;52.550;13.408;2022-08-01T00:12:32;22.80;17.40
3037;DHT22;1528;52.550;13.408;2022-08-01T00:15:21;22.70;17.80
3037;DHT22;1528;52.550;13.408;2022-08-01T00:18:09;22.60;18.00
3037;DHT22;1528;52.550;13.408;2022-08-01T00:20:59;22.60;18.40
3037;DHT22;1528;52.550;13.408;2022-08-01T00:23:50;22.50;18.90
3037;DHT22;1528;52.550;13.408;2022-08-01T00:26:38;22.40;19.40
3037;DHT22;1528;52.550;13.408;2022-08-01T00:29:26;22.40;20.80
3037;DHT22;1528;52.550;13.408;2022-08-01T00:32:15;22.20;21.50
3037;DHT22;1528;52.550;13.408;2022-08-01T00:35:04;22.20;22.10
3037;DHT22;1528;52.550;13.408;2022-08-01T00:37:56;22.20;22.50
3037;DHT22;1528;52.550;13.408;2022-08-01T00:40:44;22.10;23.00
3037;DHT22;1528;52.550;13.408;2022-08-01T00:43:33;22.20;23.30
3037;DHT22;1528;52.550;13.408;2022-08-01T00:46:23;22.10;23.10
3037;DHT22;1528;52.550;13.408;2022-08-01T00:49:12;22.10;23.60
3037;DHT22;1528;52.550;13.408;2022-08-01T00:52:04;22.20;23.70
3037;DHT22;1528;52.550;13.408;2022-08-01T00:54:55;22.20;24.00
3037;DHT22;1528;52.550;13.408;2022-08-01T00:57:44;22.10;24.20
3037;DHT22;1528;52.550;13.408;2022-08-01T01:00:33;22.00;24.80
3037;DHT22;1528;52.550;13.408;2022-08-01T01:03:25;22.10;24.90
3037;DHT22;1528;52.550;13.408;2022-08-01T01:06:23;22.10;24.90
3037;DHT22;1528;52.550;13.408;2022-08-01T01:09:18;22.20;24.90
3037;DHT22;1528;52.550;13.408;2022-08-01T01:12:20;22.10;25.00
3037;DHT22;1528;52.550;13.408;2022-08-01T01:15:13;22.20;25.00
3037;DHT22;1528;52.550;13.408;2022-08-01T01:18:07;22.20;24.90
3037;DHT22;1528;52.550;13.408;2022-08-01T01:21:03;22.10;25.00
3037;DHT22;1528;52.550;13.408;2022-08-01T01:24:07;22.20;25.00
3037;DHT22;1528;52.550;13.408;2022-08-01T01:27:06;22.20;25.00
3037;DHT22;1528;52.550;13.408;2022-08-01T01:29:59;22.10;25.20
3037;DHT22;1528;52.550;13.408;2022-08-01T01:32:51;22.10;25.40
3037;DHT22;1528;52.550;13.408;2022-08-01T01:35:47;21.90;25.80
3037;DHT22;1528;52.550;13.408;2022-08-01T01:38:40;21.90;25.90
3037;DHT22;1528;52.550;13.408;2022-08-01T01:41:30;21.90;26.10
3037;DHT22;1528;52.550;13.408;2022-08-01T01:44:20;21.80;26.30
3037;DHT22;1528;52.550;13.408;2022-08-01T01:47:10;21.50;27.10
3037;DHT22;1528;52.550;13.408;2022-08-01T01:50:00;21.50;27.20
3037;DHT22;1528;52.550;13.408;2022-08-01T01:52:50;21.60;27.00
3037;DHT22;1528;52.550;13.408;2022-08-01T01:55:45;21.60;27.10
3037;DHT22;1528;52.550;13.408;2022-08-01T01:58:36;21.60;27.10
3037;DHT22;1528;52.550;13.408;2022-08-01T02:01:28;21.40;27.40
3037;DHT22;1528;52.550;13.408;2022-08-01T02:04:20;21.40;27.40
3037;DHT22;1528;52.550;13.408;2022-08-01T02:07:10;21.30;27.70
3037;DHT22;1528;52.550;13.408;2022-08-01T02:10:04;21.40;27.70
3037;DHT22;1528;52.550;13.408;2022-08-01T02:12:54;21.30;27.80
3037;DHT22;1528;52.550;13.408;2022-08-01T02:15:44;21.20;28.00
3037;DHT22;1528;52.550;13.408;2022-08-01T02:18:33;21.20;28.10
3037;DHT22;1528;52.550;13.408;2022-08-01T02:21:27;21.30;28.10
3037;DHT22;1528;52.550;13.408;2022-08-01T02:24:22;21.10;28.40
3037;DHT22;1528;52.550;13.408;2022-08-01T02:27:15;20.90;29.10
3037;DHT22;1528;52.550;13.408;2022-08-01T02:30:07;20.90;29.20
3037;DHT22;1528;52.550;13.408;2022-08-01T02:33:00;20.90;29.30
3037;DHT22;1528;52.550;13.408;2022-08-01T02:35:52;20.80;29.40
3037;DHT22;1528;52.550;13.408;2022-08-01T02:38:44;20.90;29.40
3037;DHT22;1528;52.550;13.408;2022-08-01T02:41:35;20.90;29.70
3037;DHT22;1528;52.550;13.408;2022-08-01T02:44:31;20.90;29.70
3037;DHT22;1528;52.550;13.408;2022-08-01T02:47:21;20.90;29.80
3037;DHT22;1528;52.550;13.408;2022-08-01T02:50:12;20.90;30.20
3037;DHT22;1528;52.550;13.408;2022-08-01T02:53:04;20.80;30.40
3037;DHT22;1528;52.550;13.408;2022-08-01T02:55:59;20.80;30.40
3037;DHT22;1528;52.550;13.408;2022-08-01T02:58:48;20.80;30.70
3037;DHT22;1528;52.550;13.408;2022-08-01T03:01:38;20.60;31.40
3037;DHT22;1528;52.550;13.408;2022-08-01T03:04:28;20.70;31.80
3037;DHT22;1528;52.550;13.408;2022-08-01T03:07:17;20.70;31.80
3037;DHT22;1528;52.550;13.408;2022-08-01T03:10:11;20.70;32.10
3037;DHT22;1528;52.550;13.408;2022-08-01T03:13:04;20.70;32.00
3037;DHT22;1528;52.550;13.408;2022-08-01T03:15:54;20.60;32.40
3037;DHT22;1528;52.550;13.408;2022-08-01T03:18:44;20.60;32.30
3037;DHT22;1528;52.550;13.408;2022-08-01T03:21:34;20.70;32.10
3037;DHT22;1528;52.550;13.408;2022-08-01T03:24:24;20.60;32.10
3037;DHT22;1528;52.550;13.408;2022-08-01T03:27:15;20.60;31.70
3037;DHT22;1528;52.550;13.408;2022-08-01T03:30:08;20.70;31.70
3037;DHT22;1528;52.550;13.408;2022-08-01T03:32:57;20.80;31.20
3037;DHT22;1528;52.550;13.408;2022-08-01T03:35:48;20.80;31.20
3037;DHT22;1528;52.550;13.408;2022-08-01T03:38:40;20.80;31.40
3037;DHT22;1528;52.550;13.408;2022-08-01T03:41:32;20.60;32.10
3037;DHT22;1528;52.550;13.408;2022-08-01T03:44:25;20.60;32.30
3037;DHT22;1528;52.550;13.408;2022-08-01T03:47:17;20.70;31.90
3037;DHT22;1528;52.550;13.408;2022-08-01T03:50:07;20.70;32.10
3037;DHT22;1528;52.550;13.408;2022-08-01T03:52:58;20.90;31.80
3037;DHT22;1528;52.550;13.408;2022-08-01T03:55:47;20.90;31.70
3037;DHT22;1528;52.550;13.408;2022-08-01T03:58:37;20.90;31.80
3037;DHT22;1528;52.550;13.408;2022-08-01T04:01:26;21.00;31.80
3037;DHT22;1528;52.550;13.408;2022-08-01T04:04:18;21.00;31.90
3037;DHT22;1528;52.550;13.408;2022-08-01T04:07:22;21.00;32.10
3037;DHT22;1528;52.550;13.408;2022-08-01T04:10:12;20.90;32.60
3037;DHT22;1528;52.550;13.408;2022-08-01T04:13:01;21.00;32.40
3037;DHT22;1528;52.550;13.408;2022-08-01T04:15:49;21.00;32.30
3037;DHT22;1528;52.550;13.408;2022-08-01T04:18:38;21.00;32.40
3037;DHT22;1528;52.550;13.408;2022-08-01T04:21:28;20.90;32.70
3037;DHT22;1528;52.550;13.408;2022-08-01T04:24:20;20.90;32.90
3037;DHT22;1528;52.550;13.408;2022-08-01T04:27:13;20.90;33.00
3037;DHT22;1528;52.550;13.408;2022-08-01T04:30:02;20.80;33.70
3037;DHT22;1528;52.550;13.408;2022-08-01T04:32:53;20.70;34.40
3037;DHT22;1528;52.550;13.408;2022-08-01T04:35:44;20.80;34.40
3037;DHT22;1528;52.550;13.408;2022-08-01T04:38:35;20.70;34.80
3037;DHT22;1528;52.550;13.408;2022-08-01T04:41:25;20.90;34.50
3037;DHT22;1528;52.550;13.408;2022-08-01T04:44:14;20.80;34.80
3037;DHT22;1528;52.550;13.408;2022-08-01T04:47:03;21.00;34.70
3037;DHT22;1528;52.550;13.408;2022-08-01T04:49:53;21.00;34.70
3037;DHT22;1528;52.550;13.408;2022-08-01T04:52:42;21.10;34.40
3037;DHT22;1528;52.550;13.408;2022-08-01T04:55:33;21.00;35.00
3037;DHT22;1528;52.550;13.408;2022-08-01T04:58:22;21.00;35.30
3037;DHT22;1528;52.550;13.408;2022-08-01T05:01:10;21.10;35.30
3037;DHT22;1528;52.550;13.408;2022-08-01T05:04:01;21.00;35.50
3037;DHT22;1528;52.550;13.408;2022-08-01T05:06:49;21.00;35.90
3037;DHT22;1528;52.550;13.408;2022-08-01T05:09:38;20.90;36.50
3037;DHT22;1528;52.550;13.408;2022-08-01T05:12:29;20.80;37.10
3037;DHT22;1528;52.550;13.408;2022-08-01T05:15:19;20.70;37.70
3037;DHT22;1528;52.550;13.408;2022-08-01T05:18:08;20.70;39.20
3037;DHT22;1528;52.550;13.408;2022-08-01T05:20:56;20.60;40.90
3037;DHT22;1528;52.550;13.408;2022-08-01T05:23:45;20.50;43.00
3037;DHT22;1528;52.550;13.408;2022-08-01T05:26:35;20.40;44.40
3037;DHT22;1528;52.550;13.408;2022-08-01T05:29:25;20.30;44.50
3037;DHT22;1528;52.550;13.408;2022-08-01T05:32:14;20.30;44.90
3037;DHT22;1528;52.550;13.408;2022-08-01T05:35:03;20.40;45.10
3037;DHT22;1528;52.550;13.408;2022-08-01T05:37:53;20.40;44.70
3037;DHT22;1528;52.550;13.408;2022-08-01T05:40:42;20.50;44.20
3037;DHT22;1528;52.550;13.408;2022-08-01T05:43:34;20.60;44.00
3037;DHT22;1528;52.550;13.408;2022-08-01T05:46:24;20.70;43.10
3037;DHT22;1528;52.550;13.408;2022-08-01T05:49:14;20.70;43.00
3037;DHT22;1528;52.550;13.408;2022-08-01T05:52:03;20.80;42.20
3037;DHT22;1528;52.550;13.408;2022-08-01T05:54:52;20.90;41.70
3037;DHT22;1528;52.550;13.408;2022-08-01T05:57:41;21.00;41.50
3037;DHT22;1528;52.550;13.408;2022-08-01T06:00:29;20.90;41.40
3037;DHT22;1528;52.550;13.408;2022-08-01T06:03:19;20.80;42.00
3037;DHT22;1528;52.550;13.408;2022-08-01T06:06:09;21.00;41.60
3037;DHT22;1528;52.550;13.408;2022-08-01T06:08:57;21.00;41.30
3037;DHT22;1528;52.550;13.408;2022-08-01T06:11:48;21.00;40.90
3037;DHT22;1528;52.550;13.408;2022-08-01T06:14:43;21.00;40.70
3037;DHT22;1528;52.550;13.408;2022-08-01T06:17:31;21.00;40.30
3037;DHT22;1528;52.550;13.408;2022-08-01T06:20:22;21.10;40.00
3037;DHT22;1528;52.550;13.408;2022-08-01T06:23:10;21.00;40.20
3037;DHT22;1528;52.550;13.408;2022-08-01T06:25:59;21.10;40.00
3037;DHT22;1528;52.550;13.408;2022-08-01T06:28:48;21.00;40.10
3037;DHT22;1528;52.550;13.408;2022-08-01T06:31:36;21.00;40.40
3037;DHT22;1528;52.550;13.408;2022-08-01T06:34:26;21.00;40.30
3037;DHT22;1528;52.550;13.408;2022-08-01T06:37:16;21.10;40.00
3037;DHT22;1528;52.550;13.408;2022-08-01T06:40:05;21.20;40.10
3037;DHT22;1528;52.550;13.408;2022-08-01T06:42:54;21.30;39.60
3037;DHT22;1528;52.550;13.408;2022-08-01T06:45:43;21.30;38.90
3037;DHT22;1528;52.550;13.408;2022-08-01T06:48:31;21.60;37.90
3037;DHT22;1528;52.550;13.408;2022-08-01T06:51:21;21.80;37.20
3037;DHT22;1528;52.550;13.408;2022-08-01T06:54:11;22.00;36.20
3037;DHT22;1528;52.550;13.408;2022-08-01T06:56:59;21.90;36.00
3037;DHT22;1528;52.550;13.408;2022-08-01T06:59:47;21.90;35.90
3037;DHT22;1528;52.550;13.408;2022-08-01T07:02:36;21.90;35.60
3037;DHT22;1528;52.550;13.408;2022-08-01T07:05:25;21.90;35.20
3037;DHT22;1528;52.550;13.408;2022-08-01T07:08:13;21.90;35.20
3037;DHT22;1528;52.550;13.408;2022-08-01T07:11:03;21.80;35.20
3037;DHT22;1528;52.550;13.408;2022-08-01T07:13:51;21.80;34.80
3037;DHT22;1528;52.550;13.408;2022-08-01T07:16:40;21.90;34.60
3037;DHT22;1528;52.550;13.408;2022-08-01T07:19:28;21.70;35.20
3037;DHT22;1528;52.550;13.408;2022-08-01T07:22:17;21.60;35.20
3037;DHT22;1528;52.550;13.408;2022-08-01T07:25:08;21.80;35.10
3037;DHT22;1528;52.550;13.408;2022-08-01T07:27:58;21.70;35.10
3037;DHT22;1528;52.550;13.408;2022-08-01T07:30:46;21.80;35.20
3037;DHT22;1528;52.550;13.408;2022-08-01T07:33:37;21.70;35.20
3037;DHT22;1528;52.550;13.408;2022-08-01T07:36:26;21.70;35.60
3037;DHT22;1528;52.550;13.408;2022-08-01T07:39:14;21.60;36.50
3037;DHT22;1528;52.550;13.408;2022-08-01T07:42:02;21.30;37.70
3037;DHT22;1528;52.550;13.408;2022-08-01T07:44:53;21.40;37.20
3037;DHT22;1528;52.550;13.408;2022-08-01T07:47:44;21.60;36.40
3037;DHT22;1528;52.550;13.408;2022-08-01T07:50:35;21.80;35.60
3037;DHT22;1528;52.550;13.408;2022-08-01T07:53:23;22.10;34.30
3037;DHT22;1528;52.550;13.408;2022-08-01T07:56:11;22.00;34.10
3037;DHT22;1528;52.550;13.408;2022-08-01T07:59:02;22.10;33.20
3037;DHT22;1528;52.550;13.408;2022-08-01T08:01:53;22.10;32.30
3037;DHT22;1528;52.550;13.408;2022-08-01T08:04:41;22.00;32.70
3037;DHT22;1528;52.550;13.408;2022-08-01T08:07:29;21.90;32.70
3037;DHT22;1528;52.550;13.408;2022-08-01T08:10:18;21.90;32.80
3037;DHT22;1528;52.550;13.408;2022-08-01T08:13:07;22.00;32.70
3037;DHT22;1528;52.550;13.408;2022-08-01T08:15:55;22.00;32.50
3037;DHT22;1528;52.550;13.408;2022-08-01T08:18:48;22.00;32.10
3037;DHT22;1528;52.550;13.408;2022-08-01T08:21:37;21.90;33.10
3037;DHT22;1528;52.550;13.408;2022-08-01T08:24:26;21.90;33.00
3037;DHT22;1528;52.550;13.408;2022-08-01T08:27:14;22.10;32.40
3037;DHT22;1528;52.550;13.408;2022-08-01T08:30:04;22.20;31.50
3037;DHT22;1528;52.550;13.408;2022-08-01T08:32:53;22.50;30.70
3037;DHT22;1528;52.550;13.408;2022-08-01T08:35:44;23.00;29.50
3037;DHT22;1528;52.550;13.408;2022-08-01T08:38:32;23.30;28.40
3037;DHT22;1528;52.550;13.408;2022-08-01T08:41:21;23.40;27.90
3037;DHT22;1528;52.550;13.408;2022-08-01T08:44:12;23.50;26.80
3037;DHT22;1528;52.550;13.408;2022-08-01T08:47:02;23.70;26.50
3037;DHT22;1528;52.550;13.408;2022-08-01T08:49:53;23.50;26.10
3037;DHT22;1528;52.550;13.408;2022-08-01T08:52:44;23.20;26.10
3037;DHT22;1528;52.550;13.408;2022-08-01T08:55:34;23.00;26.40
3037;DHT22;1528;52.550;13.408;2022-08-01T08:58:25;23.00;26.50
3037;DHT22;1528;52.550;13.408;2022-08-01T09:01:14;23.00;26.60
3037;DHT22;1528;52.550;13.408;2022-08-01T09:04:03;23.10;26.40
3037;DHT22;1528;52.550;13.408;2022-08-01T09:06:52;23.40;26.00
3037;DHT22;1528;52.550;13.408;2022-08-01T09:09:43;23.50;25.10
3037;DHT22;1528;52.550;13.408;2022-08-01T09:12:33;23.70;24.70
3037;DHT22;1528;52.550;13.408;2022-08-01T09:15:38;24.00;24.10
3037;DHT22;1528;52.550;13.408;2022-08-01T09:18:30;24.20;23.60
3037;DHT22;1528;52.550;13.408;2022-08-01T09:21:20;24.30;23.40
3037;DHT22;1528;52.550;13.408;2022-08-01T09:24:18;24.30;22.90
3037;DHT22;1528;52.550;13.408;2022-08-01T09:27:21;24.10;23.00
3037;DHT22;1528;52.550;13.408;2022-08-01T09:30:12;24.20;23.20
3037;DHT22;1528;52.550;13.408;2022-08-01T09:33:02;24.30;22.90
3037;DHT22;1528;52.550;13.408;2022-08-01T09:35:56;24.50;23.10
3037;DHT22;1528;52.550;13.408;2022-08-01T09:38:44;24.40;22.80
3037;DHT22;1528;52.550;13.408;2022-08-01T09:41:32;24.10;23.30
3037;DHT22;1528;52.550;13.408;2022-08-01T09:44:38;23.80;24.20
3037;DHT22;1528;52.550;13.408;2022-08-01T09:47:37;23.50;24.80
3037;DHT22;1528;52.550;13.408;2022-08-01T09:50:42;23.30;25.40
3037;DHT22;1528;52.550;13.408;2022-08-01T09:53:41;23.30;25.40
3037;DHT22;1528;52.550;13.408;2022-08-01T09:56:37;23.40;25.40
3037;DHT22;1528;52.550;13.408;2022-08-01T09:59:34;23.60;24.90
3037;DHT22;1528;52.550;13.408;2022-08-01T10:02:33;23.80;24.70
3037;DHT22;1528;52.550;13.408;2022-08-01T10:05:31;23.60;24.90
3037;DHT22;1528;52.550;13.408;2022-08-01T10:08:19;23.50;25.60
3037;DHT22;1528;52.550;13.408;2022-08-01T10:11:10;23.60;25.20
3037;DHT22;1528;52.550;13.408;2022-08-01T10:13:59;23.60;25.00
3037;DHT22;1528;52.550;13.408;2022-08-01T10:16:52;23.40;25.10
3037;DHT22;1528;52.550;13.408;2022-08-01T10:19:41;23.20;25.60
3037;DHT22;1528;52.550;13.408;2022-08-01T10:22:31;23.10;26.10
3037;DHT22;1528;52.550;13.408;2022-08-01T10:25:20;23.00;26.70
3037;DHT22;1528;52.550;13.408;2022-08-01T10:28:13;22.60;27.50
3037;DHT22;1528;52.550;13.408;2022-08-01T10:31:02;22.70;27.80
3037;DHT22;1528;52.550;13.408;2022-08-01T10:33:52;22.80;28.10
3037;DHT22;1528;52.550;13.408;2022-08-01T10:36:41;22.80;27.50
3037;DHT22;1528;52.550;13.408;2022-08-01T10:39:31;22.90;27.40
3037;DHT22;1528;52.550;13.408;2022-08-01T10:42:21;23.00;27.30
3037;DHT22;1528;52.550;13.408;2022-08-01T10:45:11;23.20;26.90
3037;DHT22;1528;52.550;13.408;2022-08-01T10:48:04;23.30;26.50
3037;DHT22;1528;52.550;13.408;2022-08-01T10:50:57;23.50;26.00
3037;DHT22;1528;52.550;13.408;2022-08-01T10:53:52;23.30;26.20
3037;DHT22;1528;52.550;13.408;2022-08-01T10:56:42;23.20;26.20
3037;DHT22;1528;52.550;13.408;2022-08-01T10:59:30;23.10;26.60
3037;DHT22;1528;52.550;13.408;2022-08-01T11:02:31;23.20;26.50
3037;DHT22;1528;52.550;13.408;2022-08-01T11:05:20;23.40;26.20
3037;DHT22;1528;52.550;13.408;2022-08-01T11:08:20;23.60;25.40
3037;DHT22;1528;52.550;13.408;2022-08-01T11:11:11;24.00;24.70
3037;DHT22;1528;52.550;13.408;2022-08-01T11:14:04;24.20;24.30
3037;DHT22;1528;52.550;13.408;2022-08-01T11:16:57;24.20;24.00
3037;DHT22;1528;52.550;13.408;2022-08-01T11:20:07;24.20;24.00
3037;DHT22;1528;52.550;13.408;2022-08-01T11:23:28;24.00;24.30
3037;DHT22;1528;52.550;13.408;2022-08-01T11:26:17;23.70;26.60
3037;DHT22;1528;52.550;13.408;2022-08-01T11:29:21;23.10;30.10
3037;DHT22;1528;52.550;13.408;2022-08-01T11:32:41;22.60;31.60
3037;DHT22;1528;52.550;13.408;2022-08-01T11:35:33;22.30;32.50
3037;DHT22;1528;52.550;13.408;2022-08-01T11:38:27;22.20;34.60
3037;DHT22;1528;52.550;13.408;2022-08-01T11:41:16;22.30;33.40
3037;DHT22;1528;52.550;13.408;2022-08-01T11:44:06;22.60;32.50
3037;DHT22;1528;52.550;13.408;2022-08-01T11:46:58;22.80;31.10
3037;DHT22;1528;52.550;13.408;2022-08-01T11:49:49;23.00;29.70
3037;DHT22;1528;52.550;13.408;2022-08-01T11:52:39;23.20;28.90
3037;DHT22;1528;52.550;13.408;2022-08-01T11:55:27;23.30;28.00
3037;DHT22;1528;52.550;13.408;2022-08-01T11:58:13;23.50;27.20
3037;DHT22;1528;52.550;13.408;2022-08-01T12:00:58;23.70;27.10
3037;DHT22;1528;52.550;13.408;2022-08-01T12:03:45;23.80;26.40
3037;DHT22;1528;52.550;13.408;2022-08-01T12:06:30;24.30;25.10
3037;DHT22;1528;52.550;13.408;2022-08-01T12:09:18;24.50;24.50
3037;DHT22;1528;52.550;13.408;2022-08-01T12:12:04;25.00;23.10
3037;DHT22;1528;52.550;13.408;2022-08-01T12:14:53;25.20;22.70
3037;DHT22;1528;52.550;13.408;2022-08-01T12:17:41;25.00;23.00
3037;DHT22;1528;52.550;13.408;2022-08-01T12:20:29;24.90;23.10
3037;DHT22;1528;52.550;13.408;2022-08-01T12:23:15;24.20;24.00
3037;DHT22;1528;52.550;13.408;2022-08-01T12:26:01;24.10;29.20
3037;DHT22;1528;52.550;13.408;2022-08-01T12:28:48;24.00;32.70
3037;DHT22;1528;52.550;13.408;2022-08-01T12:31:35;24.20;30.60
3037;DHT22;1528;52.550;13.408;2022-08-01T12:34:27;24.40;30.40
3037;DHT22;1528;52.550;13.408;2022-08-01T12:37:14;24.90;31.50
3037;DHT22;1528;52.550;13.408;2022-08-01T12:39:59;25.40;29.50
3037;DHT22;1528;52.550;13.408;2022-08-01T12:42:47;25.80;27.20
3037;DHT22;1528;52.550;13.408;2022-08-01T12:45:34;25.80;27.10
3037;DHT22;1528;52.550;13.408;2022-08-01T12:48:21;25.90;26.00
3037;DHT22;1528;52.550;13.408;2022-08-01T12:51:10;26.20;24.80
3037;DHT22;1528;52.550;13.408;2022-08-01T12:54:01;26.30;23.80
3037;DHT22;1528;52.550;13.408;2022-08-01T12:56:50;26.60;22.80
3037;DHT22;1528;52.550;13.408;2022-08-01T12:59:41;26.80;21.60
3037;DHT22;1528;52.550;13.408;2022-08-01T13:02:32;26.70;21.80
3037;DHT22;1528;52.550;13.408;2022-08-01T13:05:25;26.60;20.80
3037;DHT22;1528;52.550;13.408;2022-08-01T13:08:16;26.30;20.30
3037;DHT22;1528;52.550;13.408;2022-08-01T13:11:07;25.70;21.20
3037;DHT22;1528;52.550;13.408;2022-08-01T13:13:59;25.30;23.00
3037;DHT22;1528;52.550;13.408;2022-08-01T13:16:48;24.90;26.90
3037;DHT22;1528;52.550;13.408;2022-08-01T13:19:45;24.60;25.40
3037;DHT22;1528;52.550;13.408;2022-08-01T13:22:35;24.70;25.10
3037;DHT22;1528;52.550;13.408;2022-08-01T13:25:23;24.90;24.90
3037;DHT22;1528;52.550;13.408;2022-08-01T13:28:20;25.20;24.10
3037;DHT22;1528;52.550;13.408;2022-08-01T13:31:09;25.70;22.70
3037;DHT22;1528;52.550;13.408;2022-08-01T13:33:58;25.90;21.00
3037;DHT22;1528;52.550;13.408;2022-08-01T13:36:46;25.50;20.50
3037;DHT22;1528;52.550;13.408;2022-08-01T13:39:35;25.20;20.90
3037;DHT22;1528;52.550;13.408;2022-08-01T13:42:31;25.00;21.00
3037;DHT22;1528;52.550;13.408;2022-08-01T13:45:21;24.80;21.40
3037;DHT22;1528;52.550;13.408;2022-08-01T13:48:09;24.60;21.90
3037;DHT22;1528;52.550;13.408;2022-08-01T13:50:58;24.30;22.60
3037;DHT22;1528;52.550;13.408;2022-08-01T13:53:50;24.40;24.30
3037;DHT22;1528;52.550;13.408;2022-08-01T13:56:37;24.50;25.30
3037;DHT22;1528;52.550;13.408;2022-08-01T13:59:26;24.50;25.90
3037;DHT22;1528;52.550;13.408;2022-08-01T14:02:24;24.60;26.10
3037;DHT22;1528;52.550;13.408;2022-08-01T14:05:13;24.70;26.20
3037;DHT22;1528;52.550;13.408;2022-08-01T14:08:01;25.00;26.00
3037;DHT22;1528;52.550;13.408;2022-08-01T14:10:49;25.40;24.80
3037;DHT22;1528;52.550;13.408;2022-08-01T14:13:39;25.70;24.20
3037;DHT22;1528;52.550;13.408;2022-08-01T14:16:28;25.90;23.40
3037;DHT22;1528;52.550;13.408;2022-08-01T14:19:18;26.20;23.10
3037;DHT22;1528;52.550;13.408;2022-08-01T14:22:06;26.70;22.20
3037;DHT22;1528;52.550;13.408;2022-08-01T14:24:55;27.60;21.00
3037;DHT22;1528;52.550;13.408;2022-08-01T14:27:45;28.30;19.20
3037;DHT22;1528;52.550;13.408;2022-08-01T14:30:36;29.30;16.70
3037;DHT22;1528;52.550;13.408;2022-08-01T14:33:26;29.60;15.90
3037;DHT22;1528;52.550;13.408;2022-08-01T14:36:18;28.70;15.70
3037;DHT22;1528;52.550;13.408;2022-08-01T14:39:06;28.30;17.30
3037;DHT22;1528;52.550;13.408;2022-08-01T14:41:55;27.70;18.60
3037;DHT22;1528;52.550;13.408;2022-08-01T14:44:44;27.50;19.40
3037;DHT22;1528;52.550;13.408;2022-08-01T14:47:32;27.30;19.00
3037;DHT22;1528;52.550;13.408;2022-08-01T14:50:21;27.00;18.90
3037;DHT22;1528;52.550;13.408;2022-08-01T14:53:11;26.60;19.60
3037;DHT22;1528;52.550;13.408;2022-08-01T14:55:59;26.40;19.90
3037;DHT22;1528;52.550;13.408;2022-08-01T14:58:48;26.20;20.50
3037;DHT22;1528;52.550;13.408;2022-08-01T15:01:37;26.00;20.90
3037;DHT22;1528;52.550;13.408;2022-08-01T15:04:25;25.80;21.50
3037;DHT22;1528;52.550;13.408;2022-08-01T15:07:15;26.20;21.40
3037;DHT22;1528;52.550;13.408;2022-08-01T15:10:06;26.50;20.10
3037;DHT22;1528;52.550;13.408;2022-08-01T15:12:55;26.30;20.10
3037;DHT22;1528;52.550;13.408;2022-08-01T15:15:45;26.30;20.40
3037;DHT22;1528;52.550;13.408;2022-08-01T15:18:33;26.00;20.00
3037;DHT22;1528;52.550;13.408;2022-08-01T15:21:22;26.10;18.70
3037;DHT22;1528;52.550;13.408;2022-08-01T15:24:10;26.10;18.40
3037;DHT22;1528;52.550;13.408;2022-08-01T15:27:00;26.20;18.50
3037;DHT22;1528;52.550;13.408;2022-08-01T15:29:51;26.60;17.50
3037;DHT22;1528;52.550;13.408;2022-08-01T15:32:42;27.10;16.50
3037;DHT22;1528;52.550;13.408;2022-08-01T15:35:30;27.40;15.80
3037;DHT22;1528;52.550;13.408;2022-08-01T15:38:19;27.30;15.50
3037;DHT22;1528;52.550;13.408;2022-08-01T15:41:09;27.30;15.00
3037;DHT22;1528;52.550;13.408;2022-08-01T15:43:59;27.50;15.10
3037;DHT22;1528;52.550;13.408;2022-08-01T15:46:49;27.60;15.00
3037;DHT22;1528;52.550;13.408;2022-08-01T15:49:37;27.80;14.90
3037;DHT22;1528;52.550;13.408;2022-08-01T15:52:26;27.90;14.60
3037;DHT22;1528;52.550;13.408;2022-08-01T15:55:16;28.10;13.60
3037;DHT22;1528;52.550;13.408;2022-08-01T15:58:05;28.10;14.20
3037;DHT22;1528;52.550;13.408;2022-08-01T16:00:55;28.00;14.70
3037;DHT22;1528;52.550;13.408;2022-08-01T16:03:42;27.80;13.60
3037;DHT22;1528;52.550;13.408;2022-08-01T16:06:31;27.80;13.80
3037;DHT22;1528;52.550;13.408;2022-08-01T16:09:19;27.70;13.30
3037;DHT22;1528;52.550;13.408;2022-08-01T16:12:10;27.80;13.10
3037;DHT22;1528;52.550;13.408;2022-08-01T16:14:58;27.70;13.40
3037;DHT22;1528;52.550;13.408;2022-08-01T16:17:49;27.60;13.60
3037;DHT22;1528;52.550;13.408;2022-08-01T16:20:41;27.60;12.80
3037;DHT22;1528;52.550;13.408;2022-08-01T16:23:29;27.50;13.20
3037;DHT22;1528;52.550;13.408;2022-08-01T16:26:17;27.50;13.10
3037;DHT22;1528;52.550;13.408;2022-08-01T16:29:05;27.40;13.50
3037;DHT22;1528;52.550;13.408;2022-08-01T16:31:52;27.50;12.80
3037;DHT22;1528;52.550;13.408;2022-08-01T16:34:42;27.30;13.00
3037;DHT22;1528;52.550;13.408;2022-08-01T16:37:30;27.00;13.60
3037;DHT22;1528;52.550;13.408;2022-08-01T16:40:18;27.00;13.30
3037;DHT22;1528;52.550;13.408;2022-08-01T16:43:06;26.80;13.90
3037;DHT22;1528;52.550;13.408;2022-08-01T16:45:54;26.80;13.60
3037;DHT22;1528;52.550;13.408;2022-08-01T16:48:43;26.70;13.80
3037;DHT22;1528;52.550;13.408;2022-08-01T16:51:33;26.70;13.90
3037;DHT22;1528;52.550;13.408;2022-08-01T16:54:21;26.60;14.50
3037;DHT22;1528;52.550;13.408;2022-08-01T16:57:12;26.50;14.50
3037;DHT22;1528;52.550;13.408;2022-08-01T16:59:59;26.50;14.10
3037;DHT22;1528;52.550;13.408;2022-08-01T17:02:50;26.40;14.20
3037;DHT22;1528;52.550;13.408;2022-08-01T17:05:39;26.20;14.90
3037;DHT22;1528;52.550;13.408;2022-08-01T17:08:32;26.30;14.70
3037;DHT22;1528;52.550;13.408;2022-08-01T17:11:20;26.10;14.90
3037;DHT22;1528;52.550;13.408;2022-08-01T17:14:15;25.90;15.30
3037;DHT22;1528;52.550;13.408;2022-08-01T17:17:03;25.90;15.80
3037;DHT22;1528;52.550;13.408;2022-08-01T17:19:51;25.80;15.20
3037;DHT22;1528;52.550;13.408;2022-08-01T17:22:40;25.70;14.60
3037;DHT22;1528;52.550;13.408;2022-08-01T17:25:30;25.70;15.20
3037;DHT22;1528;52.550;13.408;2022-08-01T17:28:22;25.60;15.30
3037;DHT22;1528;52.550;13.408;2022-08-01T17:31:13;25.50;15.60
3037;DHT22;1528;52.550;13.408;2022-08-01T17:34:02;25.50;15.90
3037;DHT22;1528;52.550;13.408;2022-08-01T17:36:51;25.50;15.70
3037;DHT22;1528;52.550;13.408;2022-08-01T17:39:39;25.40;15.80
3037;DHT22;1528;52.550;13.408;2022-08-01T17:42:30;25.30;16.00
3037;DHT22;1528;52.550;13.408;2022-08-01T17:45:18;25.10;16.30
3037;DHT22;1528;52.550;13.408;2022-08-01T17:48:07;25.20;16.40
3037;DHT22;1528;52.550;13.408;2022-08-01T17:51:00;25.10;16.60
3037;DHT22;1528;52.550;13.408;2022-08-01T17:53:49;25.10;16.00
3037;DHT22;1528;52.550;13.408;2022-08-01T17:56:38;25.10;16.10
3037;DHT22;1528;52.550;13.408;2022-08-01T17:59:29;25.00;16.30
3037;DHT22;1528;52.550;13.408;2022-08-01T18:02:18;24.90;16.40
3037;DHT22;1528;52.550;13.408;2022-08-01T18:05:07;24.80;16.50
3037;DHT22;1528;52.550;13.408;2022-08-01T18:07:57;24.80;16.70
3037;DHT22;1528;52.550;13.408;2022-08-01T18:10:47;24.60;17.00
3037;DHT22;1528;52.550;13.408;2022-08-01T18:13:36;24.70;17.00